Westville, IN (46391)

10:10 AM CDT on May 26, 2015 (GMT -0500)
Ridgeview | | Change Station
CLOSE
Current Station
Personal Weather Station
Location: Michigan City, IN
Elevation: 804 ft
Nearby Weather Stations

Elev 804 ft 41.63 °N, 86.86 °W | Updated 14 minutes ago

Overcast
Overcast
72.1 °F
Feels Like 72.1 °F
N
3.2
Wind Variable Wind from South

Today
High -- | Low -- °F
--% Chance of Precip.
Yesterday
High -- | Low -- °F
Precip. -- in
5:19 AM 8:10 PM
First Quarter, 59% visible
Pressure 29.93 in
Visibility 10.0 miles
Clouds Mostly Cloudy 1800 ft
Overcast 2300 ft
Dew Point 72 °F
Humidity 99%
Rainfall 0.00 in
Snow Depth Not available.
UV 2 out of 12
Pollen 6.80 out of 12
Air Quality Not available.
Flu Activity Sporadic
METAR KVPZ 261456Z AUTO 16011KT 10SM BKN018 OVC023 22/18 A2994 RMK AO2 SLP133 T02220183 56016 TSNO

More Conditions Fewer Conditions

Pressure 29.93 in
Visibility 10.0 miles
Clouds Mostly Cloudy 1800 ft
Overcast 2300 ft
Dew Point 72 °F
Humidity 99%
Rainfall 0.00 in
Snow Depth Not available.
UV 2 out of 12
Pollen 6.80 out of 12
Air Quality Not available.
Flu Activity Sporadic
METAR KVPZ 261456Z AUTO 16011KT 10SM BKN018 OVC023 22/18 A2994 RMK AO2 SLP133 T02220183 56016 TSNO

More Conditions Fewer Conditions

10-Day Weather Forecast

Almanac

Astronomy

May. 26, 2015 Rise Set
Actual Time
Civil Twilight
Nautical Twilight
Astronomical Twilight
Moon
Length of Visible Light
Length of Day
Tomorrow will be .
, % of the Moon is Illuminated

Today's Extremes

State Highs State Lows

Community

WunderPhotos

Upload Photos

1,824,359 photos uploaded!

WunderBlogs® & News

Nearby

Air Quality

  Air Quality AQ Index Pollutant
Not available.

Snow Depth

Station Depth Elevation

Earthquake Activity

City Distance Mag. Time & Date
Minimum magnitude displayed is 2.5.

Coastal Water Temperatures

Place Temperature

Stations

Nearby Weather Stations

Station Location Temp. Windchill Dew Point Humidity Wind Precip. Elev Updated Type